Time;durP1;ratioP1;P1;durP2;ratioP2;P2;SDS_P1;SDS_P2;PMS_P1;PMS_P2;Temp;Humidity;BMP_temperature;BMP_pressure;BME280_temperature;BME280_humidity;BME280_pressure;Samples;Min_cycle;Max_cycle;Signal;HPM_P1;HPM_P2
2023/11/23 00:01:02;;;;;;;9.07;7.30;;;;;;;4.51;59.64;97196.72;5047195;28;20502;-69
2023/11/23 00:03:28;;;;;;;8.67;6.97;;;;;;;4.49;59.51;97188.13;5061937;28;20209;-69
2023/11/23 00:05:53;;;;;;;8.50;6.77;;;;;;;4.53;59.81;97181.13;5046228;28;20401;-71
2023/11/23 00:08:20;;;;;;;11.53;6.50;;;;;;;4.51;59.46;97191.53;5046704;28;20170;-70
2023/11/23 00:10:45;;;;;;;7.10;6.00;;;;;;;4.53;59.37;97178.53;5046424;28;20183;-69
2023/11/23 00:13:11;;;;;;;12.70;6.80;;;;;;;4.53;59.79;97173.34;5046075;28;20437;-68
2023/11/23 00:15:36;;;;;;;7.77;6.33;;;;;;;4.44;59.73;97175.16;5045761;28;20186;-68
2023/11/23 00:18:02;;;;;;;8.30;6.63;;;;;;;4.37;60.65;97191.66;5046236;28;20213;-69
2023/11/23 00:20:27;;;;;;;7.07;5.80;;;;;;;4.37;60.76;97203.75;5046163;28;20201;-70
2023/11/23 00:22:52;;;;;;;7.30;6.40;;;;;;;4.47;60.04;97209.78;5046345;28;20191;-69
2023/11/23 00:25:18;;;;;;;13.73;6.63;;;;;;;4.38;60.37;97219.34;5045956;28;20625;-70
2023/11/23 00:27:43;;;;;;;8.07;6.90;;;;;;;4.51;59.95;97224.47;5047620;28;20315;-69
2023/11/23 00:30:09;;;;;;;9.27;6.47;;;;;;;4.43;60.46;97220.19;5049423;28;20205;-70
2023/11/23 00:32:35;;;;;;;7.03;6.27;;;;;;;4.66;60.00;97237.38;5046276;28;20990;-70
2023/11/23 00:35:00;;;;;;;9.87;6.50;;;;;;;4.45;59.91;97243.56;5029967;28;20450;-68
2023/11/23 00:37:26;;;;;;;9.60;6.57;;;;;;;4.34;60.95;97243.63;5030124;28;20179;-69
2023/11/23 00:39:51;;;;;;;8.17;6.90;;;;;;;4.45;60.58;97252.22;5030364;28;20205;-68
2023/11/23 00:42:16;;;;;;;11.13;7.73;;;;;;;4.55;59.63;97253.03;5030007;28;20245;-68
2023/11/23 00:44:42;;;;;;;8.80;7.43;;;;;;;4.31;60.30;97254.03;5029539;28;20197;-68
2023/11/23 00:47:07;;;;;;;16.77;7.70;;;;;;;4.48;59.79;97247.88;5029957;28;20214;-69
2023/11/23 00:49:35;;;;;;;10.07;7.50;;;;;;;4.41;60.13;97245.31;5029764;28;20199;-68
2023/11/23 00:52:01;;;;;;;14.10;8.37;;;;;;;4.41;59.68;97227.13;5029858;28;20210;-69
2023/11/23 00:54:27;;;;;;;10.40;7.87;;;;;;;4.37;60.24;97214.16;5029674;28;20865;-71
2023/11/23 00:56:53;;;;;;;9.63;7.33;;;;;;;4.42;59.77;97228.88;5029457;28;20705;-69
2023/11/23 00:59:18;;;;;;;8.47;6.80;;;;;;;4.45;59.87;97238.38;5029957;28;20450;-70
2023/11/23 01:01:44;;;;;;;8.70;6.77;;;;;;;4.37;59.78;97217.66;5029621;28;20569;-69
2023/11/23 01:04:10;;;;;;;7.50;6.33;;;;;;;4.37;59.22;97214.16;5029517;28;20202;-70
2023/11/23 01:06:35;;;;;;;12.33;8.47;;;;;;;4.26;59.96;97206.44;5029169;28;20560;-69
2023/11/23 01:09:00;;;;;;;11.80;8.30;;;;;;;4.17;60.85;97204.75;5029585;28;20209;-70
2023/11/23 01:11:26;;;;;;;9.57;7.53;;;;;;;4.17;61.11;97211.69;5029211;28;20592;-69
2023/11/23 01:13:51;;;;;;;10.23;7.93;;;;;;;4.12;60.86;97208.25;5028794;28;20226;-69
2023/11/23 01:16:17;;;;;;;11.83;7.80;;;;;;;4.19;60.46;97213.41;5029033;28;20171;-70
2023/11/23 01:18:43;;;;;;;10.33;7.60;;;;;;;4.19;60.71;97220.34;5028824;28;20195;-71
2023/11/23 01:21:08;;;;;;;11.47;8.37;;;;;;;4.05;61.80;97228.19;5027633;28;20593;-71
2023/11/23 01:23:34;;;;;;;11.30;8.83;;;;;;;4.12;61.10;97223.84;5028938;28;20433;-69
2023/11/23 01:25:59;;;;;;;11.63;8.27;;;;;;;4.20;61.51;97229.84;5030389;28;20179;-69
2023/11/23 01:28:25;;;;;;;10.23;7.80;;;;;;;4.23;60.91;97232.47;5029027;28;20183;-69
2023/11/23 01:30:50;;;;;;;12.40;8.40;;;;;;;4.11;61.57;97223.00;5028829;28;20187;-70
2023/11/23 01:33:16;;;;;;;9.90;7.53;;;;;;;4.17;61.42;97211.69;5037879;28;20257;-69
2023/11/23 01:35:42;;;;;;;13.70;8.30;;;;;;;4.33;60.46;97208.13;5048714;28;20573;-70
2023/11/23 01:38:07;;;;;;;11.90;9.23;;;;;;;4.29;60.82;97210.75;5048349;28;20418;-70
2023/11/23 01:40:32;;;;;;;11.43;8.90;;;;;;;4.25;60.96;97209.91;5047876;28;20685;-69
2023/11/23 01:43:10;;;;;;;17.30;9.97;;;;;;;4.12;61.19;97209.13;5048688;28;20643;-69
2023/11/23 01:45:37;;;;;;;13.63;9.10;;;;;;;4.20;60.66;97211.66;5047460;28;20174;-69
2023/11/23 01:48:03;;;;;;;13.07;8.50;;;;;;;4.10;61.26;97200.47;5048759;28;20503;-70
2023/11/23 01:50:31;;;;;;;11.87;9.20;;;;;;;4.13;60.88;97199.59;5048753;28;20457;-70
2023/11/23 01:52:58;;;;;;;12.93;9.50;;;;;;;4.11;61.02;97203.91;5048812;28;20430;-68
2023/11/23 01:55:23;;;;;;;13.03;9.93;;;;;;;4.07;61.34;97200.50;5047589;28;20464;-68
2023/11/23 01:57:52;;;;;;;15.70;10.20;;;;;;;4.17;61.25;97183.13;5048738;28;20912;-70
2023/11/23 02:00:17;;;;;;;13.43;10.20;;;;;;;4.21;60.74;97177.03;5047042;28;20182;-69
2023/11/23 02:02:43;;;;;;;14.47;8.70;;;;;;;3.94;61.83;97180.63;5048105;28;20433;-69
2023/11/23 02:05:09;;;;;;;12.20;9.27;;;;;;;4.02;61.53;97184.94;5046956;28;20175;-70
2023/11/23 02:07:35;;;;;;;11.27;8.40;;;;;;;3.99;61.31;97190.16;5048002;28;20299;-71
2023/11/23 02:10:01;;;;;;;12.13;9.03;;;;;;;4.05;61.35;97180.59;5048175;28;21074;-71
2023/11/23 02:12:28;;;;;;;10.33;9.20;;;;;;;3.92;62.00;97191.06;5048502;28;20195;-70
2023/11/23 02:14:54;;;;;;;10.70;8.53;;;;;;;3.89;61.81;97195.38;5051703;28;20194;-69
2023/11/23 02:17:21;;;;;;;12.23;10.20;;;;;;;4.01;61.25;97195.31;5047541;28;20982;-70
2023/11/23 02:19:49;;;;;;;11.90;8.23;;;;;;;4.06;62.05;97197.91;5047762;28;20806;-70
2023/11/23 02:22:15;;;;;;;12.57;8.73;;;;;;;3.96;61.73;97208.31;5047543;28;20468;-70
2023/11/23 02:24:45;;;;;;;11.73;8.77;;;;;;;3.90;62.35;97216.16;5047558;28;20414;-70
2023/11/23 02:27:11;;;;;;;12.37;9.07;;;;;;;3.92;62.38;97214.44;5047182;28;20413;-69
2023/11/23 02:29:38;;;;;;;11.00;8.43;;;;;;;3.86;62.30;97209.25;5047870;28;20449;-69
2023/11/23 02:32:09;;;;;;;11.13;9.13;;;;;;;3.99;61.96;97216.13;5047772;28;20417;-70
2023/11/23 02:34:36;;;;;;;14.27;9.40;;;;;;;3.93;61.89;97199.69;5027301;28;20418;-69
2023/11/23 02:37:02;;;;;;;11.13;8.47;;;;;;;3.79;62.68;97197.16;5027673;28;20414;-70
2023/11/23 02:39:29;;;;;;;11.80;8.87;;;;;;;3.89;62.45;97200.59;5028104;28;20414;-70
2023/11/23 02:41:56;;;;;;;11.40;10.20;;;;;;;3.80;62.41;97198.88;5028395;28;20777;-70
2023/11/23 02:44:22;;;;;;;10.10;9.00;;;;;;;3.85;61.99;97202.34;5037618;28;20414;-71
2023/11/23 02:46:48;;;;;;;10.80;9.13;;;;;;;3.93;61.86;97197.97;5037874;28;20475;-71
2023/11/23 02:49:14;;;;;;;17.53;10.37;;;;;;;3.85;62.64;97202.34;5036457;28;20199;-70
2023/11/23 02:51:40;;;;;;;15.23;9.90;;;;;;;3.80;62.88;97206.66;5033400;28;20426;-70
2023/11/23 02:54:06;;;;;;;14.50;9.17;;;;;;;3.71;62.55;97192.00;5027429;28;20196;-70
2023/11/23 02:56:31;;;;;;;13.20;9.67;;;;;;;3.72;62.85;97195.47;5027112;28;20182;-69
2023/11/23 02:58:57;;;;;;;11.53;9.33;;;;;;;3.70;62.88;97186.81;5027206;28;20898;-71
2023/11/23 03:01:22;;;;;;;14.00;8.80;;;;;;;3.52;63.15;97179.94;5026144;28;20187;-72
2023/11/23 03:03:48;;;;;;;13.10;8.80;;;;;;;3.57;63.33;97173.03;5031187;28;20201;-69
2023/11/23 03:06:14;;;;;;;13.10;9.93;;;;;;;3.72;62.80;97179.91;5035696;28;20187;-70
2023/11/23 03:08:40;;;;;;;15.90;10.33;;;;;;;3.58;63.13;97178.22;5047206;28;20573;-70
2023/11/23 03:11:05;;;;;;;15.03;10.93;;;;;;;3.65;62.84;97176.44;5031837;28;20418;-70
2023/11/23 03:13:31;;;;;;;14.60;9.60;;;;;;;3.58;63.55;97178.22;5027028;28;20261;-70
2023/11/23 03:15:56;;;;;;;15.03;10.40;;;;;;;3.56;63.64;97184.28;5027293;28;20187;-69
2023/11/23 03:18:21;;;;;;;14.77;10.60;;;;;;;3.48;63.33;97184.31;5028167;28;20314;-70
2023/11/23 03:20:47;;;;;;;13.00;9.53;;;;;;;3.45;64.18;97184.31;5038351;28;20511;-69
2023/11/23 03:23:12;;;;;;;18.73;9.90;;;;;;;3.47;64.00;97181.72;5027183;28;20553;-71
2023/11/23 03:25:38;;;;;;;13.17;9.63;;;;;;;3.39;64.32;97180.00;5039104;28;20183;-70
2023/11/23 03:28:06;;;;;;;11.10;9.10;;;;;;;3.33;64.66;97181.75;5046773;28;20178;-71
2023/11/23 03:30:31;;;;;;;12.63;8.97;;;;;;;3.30;64.81;97193.00;5046430;28;20210;-70
2023/11/23 03:32:57;;;;;;;11.40;9.17;;;;;;;3.39;64.25;97182.59;5040690;28;20788;-71
2023/11/23 03:35:23;;;;;;;13.50;9.63;;;;;;;3.39;64.07;97198.16;5027007;28;20175;-69
2023/11/23 03:37:48;;;;;;;14.40;9.90;;;;;;;3.47;63.83;97205.91;5026914;28;20221;-67
2023/11/23 03:40:14;;;;;;;13.50;10.07;;;;;;;3.58;64.00;97206.75;5026663;28;20444;-68
2023/11/23 03:42:39;;;;;;;12.97;9.60;;;;;;;3.48;64.04;97214.59;5026803;28;20565;-67
2023/11/23 03:45:05;;;;;;;13.03;9.27;;;;;;;3.58;63.97;97209.34;5026782;28;20236;-68
2023/11/23 03:47:31;;;;;;;13.17;10.40;;;;;;;3.58;64.18;97211.09;5026771;28;20608;-70
2023/11/23 03:49:57;;;;;;;22.93;11.30;;;;;;;3.62;64.19;97220.59;5026694;28;20458;-69
2023/11/23 03:52:22;;;;;;;18.30;10.07;;;;;;;3.57;64.27;97217.16;5026613;28;20285;-67
2023/11/23 03:54:48;;;;;;;15.03;10.30;;;;;;;3.54;64.36;97222.34;5025304;28;20199;-68
2023/11/23 03:57:13;;;;;;;14.53;9.70;;;;;;;3.62;63.60;97218.00;5026528;28;20176;-69
2023/11/23 03:59:39;;;;;;;12.60;10.33;;;;;;;3.56;63.92;97225.78;5026484;28;20164;-69
2023/11/23 04:02:04;;;;;;;11.50;9.73;;;;;;;3.46;64.04;97230.16;5027239;28;20254;-68
2023/11/23 04:04:31;;;;;;;13.60;10.70;;;;;;;3.46;64.12;97237.94;5030400;28;20175;-68
2023/11/23 04:06:58;;;;;;;11.43;10.23;;;;;;;3.42;64.59;97231.03;5030343;28;20177;-69
2023/11/23 04:09:23;;;;;;;12.27;10.20;;;;;;;3.41;64.60;97234.50;5030602;28;20508;-68
2023/11/23 04:11:49;;;;;;;17.13;10.47;;;;;;;3.43;64.62;97224.97;5030606;28;20410;-67
2023/11/23 04:14:14;;;;;;;13.03;10.83;;;;;;;3.36;64.99;97224.13;5030220;28;20187;-68
2023/11/23 04:16:40;;;;;;;15.30;9.87;;;;;;;3.15;65.08;97224.16;5028678;28;20179;-67
2023/11/23 04:19:05;;;;;;;12.73;9.53;;;;;;;3.29;65.21;97229.34;5030536;28;20194;-69
2023/11/23 04:21:31;;;;;;;16.63;10.30;;;;;;;3.17;65.52;97236.25;5030516;28;20262;-68
2023/11/23 04:23:56;;;;;;;13.17;10.97;;;;;;;3.30;65.00;97231.91;5030209;28;20226;-68
2023/11/23 04:26:21;;;;;;;13.70;9.67;;;;;;;3.30;64.98;97224.13;5029685;28;20171;-70
2023/11/23 04:28:48;;;;;;;11.27;9.07;;;;;;;3.35;65.30;97229.31;5030247;28;20273;-68
2023/11/23 04:31:13;;;;;;;13.83;9.67;;;;;;;3.41;65.24;97226.72;5030066;28;20984;-68
2023/11/23 04:33:39;;;;;;;12.50;9.60;;;;;;;3.43;64.69;97222.38;5042209;28;20425;-68
2023/11/23 04:36:04;;;;;;;10.77;9.63;;;;;;;3.37;65.31;97219.78;5050004;28;20544;-69
2023/11/23 04:38:30;;;;;;;15.90;10.33;;;;;;;3.35;65.60;97218.94;5049942;28;20185;-69
2023/11/23 04:40:56;;;;;;;13.10;10.03;;;;;;;3.35;65.59;97219.81;5050217;28;20178;-70
2023/11/23 04:43:21;;;;;;;13.93;9.80;;;;;;;3.34;65.84;97217.22;5050452;28;20230;-68
2023/11/23 04:45:47;;;;;;;10.90;8.50;;;;;;;3.38;65.53;97211.16;5051044;28;20637;-69
2023/11/23 04:48:12;;;;;;;15.40;8.33;;;;;;;3.20;65.49;97193.03;5050113;28;20262;-69
2023/11/23 04:50:37;;;;;;;10.30;9.20;;;;;;;3.25;65.52;97199.06;5050048;28;20203;-67
2023/11/23 04:53:03;;;;;;;12.23;9.50;;;;;;;3.15;66.05;97187.84;5049874;28;20233;-69
2023/11/23 04:55:29;;;;;;;11.37;8.50;;;;;;;3.14;66.02;97187.00;5050690;28;20167;-67
2023/11/23 04:57:55;;;;;;;13.47;8.70;;;;;;;3.12;65.90;97191.31;5051383;28;20181;-68
2023/11/23 05:00:24;;;;;;;10.57;9.50;;;;;;;3.03;66.05;97185.28;5052194;28;20939;-70
2023/11/23 05:02:51;;;;;;;13.70;9.33;;;;;;;3.07;66.02;97182.69;5051714;28;20539;-69
2023/11/23 05:05:16;;;;;;;12.60;9.70;;;;;;;3.04;66.62;97179.22;5048143;28;20462;-70
2023/11/23 05:07:41;;;;;;;12.50;10.47;;;;;;;3.00;66.57;97175.78;5049934;28;20409;-70
2023/11/23 05:10:08;;;;;;;12.40;9.83;;;;;;;2.96;66.64;97168.88;5049482;28;20622;-67
2023/11/23 05:12:37;;;;;;;15.90;9.50;;;;;;;3.00;66.23;97165.41;5049331;28;20198;-68
2023/11/23 05:15:06;;;;;;;11.60;8.77;;;;;;;3.17;66.00;97168.84;5049201;28;20477;-70
2023/11/23 05:17:32;;;;;;;9.93;8.30;;;;;;;3.01;66.21;97172.31;5049642;28;20433;-69
2023/11/23 05:19:58;;;;;;;13.10;9.37;;;;;;;3.16;65.79;97177.47;5049383;28;21015;-68
2023/11/23 05:22:24;;;;;;;12.27;8.70;;;;;;;3.03;66.18;97173.19;5049260;28;20729;-67
2023/11/23 05:24:49;;;;;;;17.53;11.33;;;;;;;3.00;66.10;97178.38;5049127;28;20181;-69
2023/11/23 05:27:15;;;;;;;16.90;10.90;;;;;;;2.92;66.42;97172.34;5049739;28;20723;-70
2023/11/23 05:29:40;;;;;;;15.70;9.77;;;;;;;2.97;66.40;97174.03;5049103;28;20285;-69
2023/11/23 05:32:06;;;;;;;12.00;9.57;;;;;;;2.92;66.57;97173.19;5049022;28;20199;-69
2023/11/23 05:34:31;;;;;;;14.37;10.50;;;;;;;3.01;66.34;97176.66;5029553;28;20221;-69
2023/11/23 05:36:57;;;;;;;14.63;9.90;;;;;;;3.23;65.62;97172.28;5029004;28;20167;-68
2023/11/23 05:39:22;;;;;;;11.40;8.70;;;;;;;3.20;65.74;97161.91;5029830;28;20178;-69
2023/11/23 05:41:48;;;;;;;14.00;9.50;;;;;;;3.20;65.71;97167.09;5029473;28;20183;-67
2023/11/23 05:44:13;;;;;;;12.93;10.03;;;;;;;3.27;65.63;97174.84;5029445;28;20229;-68
2023/11/23 05:46:38;;;;;;;13.80;9.10;;;;;;;3.13;65.45;97184.41;5028858;28;20325;-69
2023/11/23 05:49:05;;;;;;;15.13;9.67;;;;;;;3.23;65.76;97175.72;5029353;28;20210;-67
2023/11/23 05:51:30;;;;;;;12.43;9.03;;;;;;;3.22;65.78;97173.16;5029804;28;20592;-69
2023/11/23 05:53:56;;;;;;;14.93;12.10;;;;;;;3.13;65.75;97180.06;5030126;28;20441;-69
2023/11/23 05:56:22;;;;;;;15.60;10.50;;;;;;;3.07;66.29;97181.81;5029803;28;20180;-68
2023/11/23 05:58:47;;;;;;;18.33;11.20;;;;;;;3.14;66.16;97178.34;5030151;28;20175;-67
2023/11/23 06:01:12;;;;;;;15.30;11.50;;;;;;;3.16;66.01;97174.00;5029551;28;20221;-69
2023/11/23 06:03:40;;;;;;;11.80;9.73;;;;;;;2.99;66.55;97171.47;5030661;28;20192;-68
2023/11/23 06:06:06;;;;;;;10.37;8.50;;;;;;;3.06;66.63;97174.91;5030319;28;20266;-70
2023/11/23 06:08:31;;;;;;;16.03;9.70;;;;;;;2.93;67.00;97171.50;5027795;28;20988;-69
2023/11/23 06:10:57;;;;;;;14.77;9.53;;;;;;;2.92;67.03;97170.59;5030525;28;20495;-68
2023/11/23 06:13:22;;;;;;;30.23;9.83;;;;;;;2.99;66.76;97173.19;5031524;28;20202;-68
2023/11/23 06:15:48;;;;;;;19.33;10.50;;;;;;;2.99;66.62;97176.66;5030628;28;20191;-70
2023/11/23 06:18:14;;;;;;;14.90;10.10;;;;;;;3.01;67.16;97185.28;5039334;28;20179;-69
2023/11/23 06:20:39;;;;;;;14.60;10.60;;;;;;;3.10;66.77;97190.47;5050555;28;20412;-69
2023/11/23 06:23:05;;;;;;;16.07;10.70;;;;;;;3.10;66.64;97187.00;5050368;28;20645;-68
2023/11/23 06:25:30;;;;;;;13.50;9.33;;;;;;;3.20;66.83;97187.84;5049750;28;20181;-69
2023/11/23 06:27:56;;;;;;;14.33;10.70;;;;;;;3.21;66.27;97190.41;5055815;28;20179;-68
2023/11/23 06:30:21;;;;;;;16.13;10.33;;;;;;;3.24;66.21;97193.03;5055608;28;20210;-70
2023/11/23 06:32:47;;;;;;;11.37;9.40;;;;;;;3.24;66.32;97194.78;5055532;28;20218;-69
2023/11/23 06:35:12;;;;;;;11.90;9.33;;;;;;;3.11;66.94;97186.97;5047980;28;20182;-69
2023/11/23 06:37:37;;;;;;;11.80;9.00;;;;;;;3.09;67.32;97193.03;5047491;28;20265;-68
2023/11/23 06:40:03;;;;;;;28.73;10.10;;;;;;;3.17;66.58;97192.16;5048231;28;20167;-69
2023/11/23 06:42:28;;;;;;;16.07;10.90;;;;;;;3.18;66.31;97190.44;5047529;28;20226;-68
2023/11/23 06:44:54;;;;;;;14.50;10.10;;;;;;;3.27;66.68;97184.38;5048305;28;20163;-68
2023/11/23 06:47:19;;;;;;;13.03;9.20;;;;;;;3.23;66.38;97188.69;5047269;28;20178;-68
2023/11/23 06:49:45;;;;;;;17.90;11.10;;;;;;;3.05;66.81;97186.13;5047349;28;20212;-66
2023/11/23 06:52:10;;;;;;;14.43;9.70;;;;;;;3.26;66.48;97187.81;5047324;28;20234;-70
2023/11/23 06:54:36;;;;;;;14.23;10.47;;;;;;;3.04;66.75;97187.88;5047550;28;20202;-68
2023/11/23 06:57:01;;;;;;;14.60;10.07;;;;;;;3.38;66.01;97185.22;5047556;28;20183;-70
2023/11/23 06:59:27;;;;;;;15.03;9.47;;;;;;;3.91;64.07;97196.25;5047396;28;20171;-69
2023/11/23 07:01:53;;;;;;;16.00;9.50;;;;;;;4.51;62.24;97185.47;5046968;28;20260;-70
2023/11/23 07:04:18;;;;;;;14.10;9.50;;;;;;;5.03;60.14;97187.63;5047050;28;20417;-69
2023/11/23 07:06:44;;;;;;;17.10;9.40;;;;;;;5.70;58.15;97199.94;5047090;28;20166;-68
2023/11/23 07:09:13;;;;;;;15.10;9.70;;;;;;;6.12;56.45;97191.66;5047037;28;20198;-70
2023/11/23 07:11:40;;;;;;;11.23;8.80;;;;;;;6.82;53.91;97194.09;5047341;28;20202;-69
2023/11/23 07:14:06;;;;;;;14.13;10.17;;;;;;;7.22;52.57;97189.91;5046374;28;20445;-69
2023/11/23 07:16:31;;;;;;;19.33;10.00;;;;;;;7.60;51.65;97182.25;5046624;28;20966;-71
2023/11/23 07:18:56;;;;;;;13.30;10.43;;;;;;;7.83;51.32;97184.41;5046500;28;20447;-69
2023/11/23 07:21:22;;;;;;;15.00;10.67;;;;;;;8.20;49.96;97191.47;5046738;28;20177;-70
2023/11/23 07:23:47;;;;;;;19.83;10.87;;;;;;;8.23;49.40;97189.66;5046152;28;20860;-69
2023/11/23 07:26:12;;;;;;;18.00;10.90;;;;;;;8.53;49.10;97194.25;5046177;28;20171;-69
2023/11/23 07:28:38;;;;;;;23.30;12.37;;;;;;;8.99;47.69;97183.53;5046462;28;20680;-69
2023/11/23 07:31:05;;;;;;;14.87;10.53;;;;;;;9.41;46.86;97175.47;5046774;28;20170;-69
2023/11/23 07:33:34;;;;;;;15.90;10.17;;;;;;;9.50;46.02;97162.13;5035169;28;20199;-70
2023/11/23 07:36:02;;;;;;;15.63;10.17;;;;;;;9.74;45.06;97164.97;5026166;28;20449;-67
2023/11/23 07:38:27;;;;;;;16.20;10.47;;;;;;;9.96;44.33;97168.69;5025512;28;20501;-69
2023/11/23 07:40:52;;;;;;;11.63;10.20;;;;;;;10.25;44.04;97155.59;5026564;28;20425;-69
2023/11/23 07:43:18;;;;;;;16.43;11.03;;;;;;;10.64;43.16;97160.56;5026418;28;20348;-69
2023/11/23 07:45:44;;;;;;;12.33;11.00;;;;;;;10.94;42.27;97150.84;5026288;28;20180;-70
2023/11/23 07:48:13;;;;;;;16.90;11.43;;;;;;;11.25;41.53;97147.16;5026382;28;20301;-69
2023/11/23 07:50:39;;;;;;;18.47;11.70;;;;;;;11.24;41.72;97151.53;5026074;28;20207;-68
2023/11/23 07:53:04;;;;;;;14.43;10.10;;;;;;;11.59;41.04;97142.41;5026304;28;20449;-69
2023/11/23 07:55:31;;;;;;;12.40;10.40;;;;;;;11.89;40.06;97151.94;5026098;28;20194;-69
2023/11/23 07:57:56;;;;;;;12.47;10.93;;;;;;;12.12;39.04;97151.03;5026122;28;20175;-69
2023/11/23 08:00:22;;;;;;;11.90;10.60;;;;;;;12.37;38.48;97149.19;5025865;28;20417;-70
2023/11/23 08:02:47;;;;;;;12.47;10.90;;;;;;;12.74;38.40;97153.00;5026217;28;20302;-68
2023/11/23 08:05:13;;;;;;;12.57;11.27;;;;;;;13.14;37.66;97146.09;5025900;28;20333;-68
2023/11/23 08:07:38;;;;;;;14.57;12.37;;;;;;;13.39;36.81;97135.38;5025948;28;20278;-69
2023/11/23 08:10:08;;;;;;;12.47;10.70;;;;;;;13.45;36.88;97135.09;5025652;28;20211;-69
2023/11/23 08:12:34;;;;;;;12.00;10.13;;;;;;;14.34;39.04;97128.44;5025803;28;20265;-68
2023/11/23 08:14:59;;;;;;;11.30;9.27;;;;;;;17.44;36.65;97120.81;5025974;28;20805;-68
2023/11/23 08:17:26;;;;;;;12.23;8.57;;;;;;;18.18;31.81;97115.38;5026077;28;20214;-68
2023/11/23 08:19:52;;;;;;;16.20;10.73;;;;;;;16.17;32.23;97128.94;5025901;28;20482;-68
2023/11/23 08:22:20;;;;;;;11.07;9.13;;;;;;;15.14;33.38;97139.56;5026443;28;20446;-71
2023/11/23 08:24:46;;;;;;;14.07;11.77;;;;;;;14.79;34.01;97147.47;5038178;28;20474;-69
2023/11/23 08:27:11;;;;;;;11.90;10.80;;;;;;;15.18;33.86;97160.47;5038266;28;20453;-70
2023/11/23 08:29:37;;;;;;;13.73;11.50;;;;;;;15.04;33.59;97150.59;5038831;28;20223;-70
2023/11/23 08:32:02;;;;;;;11.10;10.00;;;;;;;15.32;32.94;97151.00;5029125;28;20518;-69
2023/11/23 08:34:27;;;;;;;10.87;9.87;;;;;;;15.22;33.14;97148.81;5044627;28;20197;-70
2023/11/23 08:36:54;;;;;;;11.17;10.07;;;;;;;15.15;32.75;97147.44;5045728;28;20175;-69
2023/11/23 08:39:20;;;;;;;10.87;9.83;;;;;;;15.40;32.52;97141.75;5046359;28;20262;-68
2023/11/23 08:41:48;;;;;;;11.10;10.00;;;;;;;15.24;32.75;97148.75;5045779;28;20421;-71
2023/11/23 08:44:14;;;;;;;11.77;10.57;;;;;;;15.68;31.85;97150.88;5045489;28;20193;-67
2023/11/23 08:46:41;;;;;;;12.40;10.90;;;;;;;15.80;31.95;97154.72;5045329;28;20815;-69
2023/11/23 08:49:06;;;;;;;10.43;9.43;;;;;;;16.06;31.05;97158.63;5047810;28;20764;-69
2023/11/23 08:51:32;;;;;;;10.37;9.47;;;;;;;16.17;31.09;97166.00;5049497;28;20511;-70
2023/11/23 08:53:57;;;;;;;10.60;9.30;;;;;;;16.18;31.22;97165.94;5049538;28;20205;-70
2023/11/23 08:56:22;;;;;;;10.00;9.00;;;;;;;16.34;30.89;97176.53;5048916;28;20237;-68
2023/11/23 08:58:49;;;;;;;10.10;9.10;;;;;;;16.12;30.69;97168.91;5049682;28;20610;-68
2023/11/23 09:01:14;;;;;;;9.23;8.30;;;;;;;16.68;30.30;97159.63;5049242;28;20585;-66
2023/11/23 09:03:40;;;;;;;9.30;8.33;;;;;;;16.29;30.67;97167.97;5048633;28;20467;-69
2023/11/23 09:06:08;;;;;;;9.60;8.47;;;;;;;16.57;30.35;97166.47;5049506;28;20202;-69
2023/11/23 09:08:33;;;;;;;11.03;8.83;;;;;;;16.54;30.04;97161.34;5049065;28;20241;-67
2023/11/23 09:10:59;;;;;;;11.13;9.10;;;;;;;16.11;30.63;97166.31;5049216;28;20811;-69
2023/11/23 09:13:27;;;;;;;11.63;8.77;;;;;;;15.95;31.03;97153.06;5046300;28;20195;-69
2023/11/23 09:15:54;;;;;;;9.17;7.57;;;;;;;15.26;32.04;97146.91;5049153;28;20272;-69
2023/11/23 09:18:21;;;;;;;11.30;8.30;;;;;;;14.72;32.89;97154.00;5047777;28;20467;-68
2023/11/23 09:20:47;;;;;;;10.67;8.17;;;;;;;14.12;34.54;97148.84;5037052;28;20436;-69
2023/11/23 09:23:13;;;;;;;12.33;7.33;;;;;;;14.28;34.21;97157.75;5048878;28;20429;-68
2023/11/23 09:25:39;;;;;;;12.30;8.37;;;;;;;14.34;34.06;97165.41;5037808;28;20476;-69
2023/11/23 09:28:04;;;;;;;10.03;8.07;;;;;;;14.18;34.57;97165.25;5028567;28;20254;-67
2023/11/23 09:30:30;;;;;;;13.50;9.77;;;;;;;13.88;34.54;97156.94;5028500;28;20210;-69
2023/11/23 09:32:56;;;;;;;10.97;8.10;;;;;;;13.84;34.75;97152.75;5034673;28;20682;-69
2023/11/23 09:35:21;;;;;;;7.77;6.83;;;;;;;13.68;34.79;97143.81;5048352;28;20520;-71
2023/11/23 09:37:47;;;;;;;16.13;7.50;;;;;;;13.28;35.08;97146.38;5040812;28;20179;-69
2023/11/23 09:40:23;;;;;;;9.53;7.10;;;;;;;13.09;35.88;97159.44;5048521;28;20182;-69
2023/11/23 09:42:48;;;;;;;7.80;6.83;;;;;;;12.61;36.37;97152.63;5048534;28;20190;-68
2023/11/23 09:45:20;;;;;;;8.77;6.37;;;;;;;12.96;35.89;97141.56;5048284;28;20421;-68
2023/11/23 09:47:48;;;;;;;10.10;6.37;;;;;;;12.69;36.64;97132.13;5047858;28;20167;-69
2023/11/23 09:50:14;;;;;;;8.50;5.97;;;;;;;12.49;36.77;97138.16;5048792;28;20468;-70
2023/11/23 09:52:41;;;;;;;7.90;6.20;;;;;;;12.59;37.12;97122.88;5048094;28;20425;-69
2023/11/23 09:55:08;;;;;;;8.60;6.73;;;;;;;12.53;38.14;97115.22;5047767;28;20406;-71
2023/11/23 09:57:35;;;;;;;9.87;8.40;;;;;;;12.55;38.33;97110.75;5047943;28;20401;-69
2023/11/23 10:00:08;;;;;;;8.47;6.97;;;;;;;12.28;40.09;97116.22;5047097;28;20432;-70
2023/11/23 10:02:36;;;;;;;9.17;7.20;;;;;;;12.13;40.42;97114.16;5047938;28;20425;-69
2023/11/23 10:05:02;;;;;;;8.07;6.67;;;;;;;12.15;39.68;97109.69;5047594;28;21023;-73
2023/11/23 10:07:28;;;;;;;8.40;7.50;;;;;;;12.28;39.45;97110.06;5048388;28;20486;-68
2023/11/23 10:09:54;;;;;;;9.13;6.43;;;;;;;12.20;39.22;97110.38;5047850;28;20456;-68
2023/11/23 10:12:21;;;;;;;6.70;5.73;;;;;;;12.34;38.47;97098.44;5047863;28;20292;-71
2023/11/23 10:14:47;;;;;;;9.10;6.83;;;;;;;12.61;38.58;97076.25;5032935;28;20506;-72
2023/11/23 10:17:13;;;;;;;7.30;5.80;;;;;;;12.36;38.22;97068.53;5027676;28;20630;-69
2023/11/23 10:19:38;;;;;;;10.67;6.70;;;;;;;12.47;37.78;97060.16;5050132;28;20181;-69
2023/11/23 10:22:04;;;;;;;21.00;8.30;;;;;;;12.63;37.71;97041.97;5046643;28;20183;-68
2023/11/23 10:24:30;;;;;;;21.30;8.20;;;;;;;12.39;38.74;97049.97;5049423;28;20657;-72
2023/11/23 10:26:56;;;;;;;12.70;7.53;;;;;;;12.05;39.25;97032.06;5047008;28;20200;-72
2023/11/23 10:29:28;;;;;;;9.27;5.90;;;;;;;11.96;40.83;97035.03;5046762;28;20460;-73
2023/11/23 10:31:56;;;;;;;7.53;6.43;;;;;;;12.00;39.71;97023.47;5047011;28;20433;-71
2023/11/23 10:34:24;;;;;;;8.60;6.83;;;;;;;12.03;40.21;97015.47;5029833;28;20403;-71
2023/11/23 10:36:51;;;;;;;16.40;8.40;;;;;;;11.94;40.60;97021.94;5026750;28;20438;-71
2023/11/23 10:39:19;;;;;;;14.93;7.00;;;;;;;11.91;40.97;97008.94;5027218;28;20406;-71
2023/11/23 10:41:46;;;;;;;15.33;7.20;;;;;;;11.92;40.14;97005.38;5027341;28;20403;-73
2023/11/23 10:44:12;;;;;;;13.53;7.03;;;;;;;12.07;40.74;97007.41;5027488;28;20426;-71
2023/11/23 10:46:38;;;;;;;31.83;7.80;;;;;;;12.34;39.89;96995.81;5026377;28;20421;-68
2023/11/23 10:49:09;;;;;;;14.60;7.37;;;;;;;12.33;39.79;96991.44;5027048;28;20462;-69
2023/11/23 10:51:35;;;;;;;23.53;7.53;;;;;;;12.24;40.40;96990.94;5026943;28;20414;-71
2023/11/23 10:54:01;;;;;;;18.00;6.73;;;;;;;11.83;40.70;96995.16;5026466;28;20488;-71
2023/11/23 10:56:32;;;;;;;12.87;6.67;;;;;;;11.71;40.84;96998.28;5026327;28;20944;-69
2023/11/23 10:59:08;;;;;;;21.87;7.80;;;;;;;11.73;40.74;96992.06;5027277;28;20433;-71
2023/11/23 11:01:35;;;;;;;17.37;6.83;;;;;;;11.69;40.91;96981.72;5027657;28;21148;-71
2023/11/23 11:04:01;;;;;;;16.30;7.73;;;;;;;11.88;41.36;96979.25;5026984;28;20971;-69
2023/11/23 11:06:38;;;;;;;12.97;6.70;;;;;;;12.05;39.98;96975.03;5026233;28;20438;-71
2023/11/23 11:09:13;;;;;;;10.73;6.50;;;;;;;12.17;40.37;96965.78;5026548;28;20203;-68
2023/11/23 11:11:42;;;;;;;7.43;6.00;;;;;;;12.31;39.66;96957.31;5025754;28;20434;-69
2023/11/23 11:14:08;;;;;;;10.57;6.53;;;;;;;12.39;39.86;96952.56;5035886;28;20440;-70
2023/11/23 11:16:35;;;;;;;9.27;5.97;;;;;;;12.19;39.51;96957.81;5045701;28;20405;-70
2023/11/23 11:19:06;;;;;;;7.67;5.70;;;;;;;12.45;39.29;96957.59;5046488;28;20413;-70
2023/11/23 11:21:48;;;;;;;9.73;7.20;;;;;;;12.38;39.16;96952.63;5046037;28;20405;-71
2023/11/23 11:24:23;;;;;;;6.73;5.70;;;;;;;12.22;39.80;96944.53;5046413;28;20836;-71